createdAt,value
2023-09-12T00:00:53.284Z,69.72
2023-09-12T00:03:22.102Z,69.60
2023-09-12T00:05:58.258Z,69.56
2023-09-12T00:08:26.531Z,69.39
2023-09-12T00:11:04.125Z,69.47
2023-09-12T00:13:32.676Z,69.40
2023-09-12T00:16:00.540Z,69.44
2023-09-12T00:18:28.346Z,69.50
2023-09-12T00:20:56.531Z,69.53
2023-09-12T00:23:24.988Z,69.45
2023-09-12T00:25:55.362Z,69.42
2023-09-12T00:28:23.086Z,69.37
2023-09-12T00:30:51.092Z,69.63
2023-09-12T00:33:18.803Z,69.55
2023-09-12T00:35:48.171Z,69.25
2023-09-12T00:38:17.784Z,69.23
2023-09-12T00:40:45.441Z,69.14
2023-09-12T00:43:13.102Z,69.07
2023-09-12T00:45:41.360Z,69.14
2023-09-12T00:48:10.375Z,69.16
2023-09-12T00:50:38.098Z,69.27
2023-09-12T00:53:05.695Z,69.21
2023-09-12T00:55:35.502Z,69.25
2023-09-12T00:58:03.772Z,69.16
2023-09-12T01:00:31.658Z,69.12
2023-09-12T01:02:59.426Z,69.24
2023-09-12T01:05:28.104Z,69.31
2023-09-12T01:07:58.390Z,69.50
2023-09-12T01:10:25.871Z,69.56
2023-09-12T01:12:53.743Z,69.52
2023-09-12T01:15:21.760Z,69.43
2023-09-12T01:17:49.555Z,69.48
2023-09-12T01:20:26.063Z,69.49
2023-09-12T01:23:05.799Z,69.52
2023-09-12T01:25:43.269Z,69.44
2023-09-12T01:28:11.130Z,69.32
2023-09-12T01:30:39.960Z,69.25
2023-09-12T01:33:07.825Z,69.11
2023-09-12T01:35:36.025Z,69.03
2023-09-12T01:38:05.648Z,68.96
2023-09-12T01:40:51.337Z,68.84
2023-09-12T01:43:22.270Z,68.89
2023-09-12T01:45:55.209Z,68.89
2023-09-12T01:48:25.405Z,68.98
2023-09-12T01:50:53.235Z,69.05
2023-09-12T01:53:20.897Z,69.20
2023-09-12T01:55:48.605Z,69.14
2023-09-12T01:58:16.266Z,69.25
2023-09-12T02:00:43.942Z,69.14
2023-09-12T02:03:11.720Z,69.23
2023-09-12T02:05:39.479Z,69.22
2023-09-12T02:08:07.097Z,69.11
2023-09-12T02:10:36.303Z,69.22
2023-09-12T02:13:03.980Z,69.14
2023-09-12T02:15:32.465Z,69.21
2023-09-12T02:18:00.310Z,69.21
2023-09-12T02:20:28.037Z,69.28
2023-09-12T02:22:56.850Z,69.29
2023-09-12T02:25:24.343Z,69.39
2023-09-12T02:27:52.028Z,69.51
2023-09-12T02:30:19.657Z,69.43
2023-09-12T02:32:47.231Z,69.41
2023-09-12T02:35:14.976Z,69.51
2023-09-12T02:37:42.723Z,69.23
2023-09-12T02:40:13.155Z,69.23
2023-09-12T02:42:41.689Z,69.09
2023-09-12T02:45:10.383Z,69.14
2023-09-12T02:47:38.091Z,68.95
2023-09-12T02:50:06.132Z,68.97
2023-09-12T02:52:33.761Z,69.00
2023-09-12T02:55:01.383Z,68.98
2023-09-12T02:57:28.984Z,69.08
2023-09-12T02:59:56.541Z,69.12
2023-09-12T03:02:24.208Z,69.19
2023-09-12T03:04:52.084Z,69.18
2023-09-12T03:07:19.696Z,69.16
2023-09-12T03:09:51.092Z,69.10
2023-09-12T03:12:18.648Z,69.05
2023-09-12T03:14:46.276Z,69.01
2023-09-12T03:17:13.873Z,69.15
2023-09-12T03:19:41.613Z,69.44
2023-09-12T03:22:09.245Z,69.48
2023-09-12T03:24:36.880Z,69.49
2023-09-12T03:27:05.333Z,69.58
2023-09-12T03:29:34.542Z,69.67
2023-09-12T03:32:02.259Z,69.57
2023-09-12T03:34:30.563Z,69.54
2023-09-12T03:36:58.187Z,69.62
2023-09-12T03:39:25.708Z,69.59
2023-09-12T03:41:53.303Z,69.51
2023-09-12T03:44:21.070Z,69.49
2023-09-12T03:46:48.749Z,69.44
2023-09-12T03:49:18.496Z,69.45
2023-09-12T03:51:46.321Z,69.65
2023-09-12T03:54:14.934Z,69.71
2023-09-12T03:56:44.490Z,69.76
2023-09-12T03:59:15.008Z,69.88
2023-09-12T04:01:42.718Z,69.82
2023-09-12T04:04:10.948Z,69.82
2023-09-12T04:06:39.855Z,69.77
2023-09-12T04:09:08.031Z,69.78
2023-09-12T04:11:46.366Z,69.69
2023-09-12T04:14:15.713Z,69.70
2023-09-12T04:16:43.549Z,69.62
2023-09-12T04:19:11.298Z,69.77
2023-09-12T04:21:39.421Z,69.68
2023-09-12T04:24:08.072Z,69.70
2023-09-12T04:26:35.713Z,69.59
2023-09-12T04:29:03.744Z,69.86
2023-09-12T04:31:31.827Z,69.88
2023-09-12T04:33:59.720Z,69.99
2023-09-12T04:36:27.392Z,70.08
2023-09-12T04:38:54.989Z,70.23
2023-09-12T04:41:23.831Z,70.26
2023-09-12T04:43:51.587Z,70.36
2023-09-12T04:46:19.173Z,70.47
2023-09-12T04:48:47.124Z,70.55
2023-09-12T04:51:14.916Z,70.92
2023-09-12T04:53:42.473Z,71.03
2023-09-12T04:56:11.361Z,71.20
2023-09-12T04:58:39.703Z,71.31
2023-09-12T05:01:07.305Z,71.27
2023-09-12T05:03:34.966Z,71.36
2023-09-12T05:06:02.848Z,71.38
2023-09-12T05:08:31.081Z,71.39
2023-09-12T05:10:58.884Z,71.33
2023-09-12T05:13:29.399Z,71.31
2023-09-12T05:15:58.020Z,71.30
2023-09-12T05:18:26.334Z,71.25
2023-09-12T05:20:54.069Z,71.11
2023-09-12T05:23:21.641Z,71.03
2023-09-12T05:25:49.212Z,70.95
2023-09-12T05:28:17.396Z,70.67
2023-09-12T05:30:49.622Z,70.48
2023-09-12T05:33:19.460Z,70.23
2023-09-12T05:35:48.493Z,70.08
2023-09-12T05:38:16.205Z,69.79
2023-09-12T05:40:44.361Z,69.61
2023-09-12T05:43:12.024Z,69.30
2023-09-12T05:45:39.905Z,68.95
2023-09-12T05:48:07.745Z,68.48
2023-09-12T05:50:37.782Z,68.02
2023-09-12T05:53:06.416Z,67.60
2023-09-12T05:55:34.048Z,67.01
2023-09-12T05:58:01.726Z,66.76
2023-09-12T06:00:29.900Z,66.30
2023-09-12T06:02:57.758Z,65.76
2023-09-12T06:05:25.983Z,65.38
2023-09-12T06:07:54.900Z,64.89
2023-09-12T06:10:22.914Z,64.27
2023-09-12T06:12:51.064Z,63.74
2023-09-12T06:15:19.089Z,63.18
2023-09-12T06:17:49.329Z,62.63
2023-09-12T06:20:17.137Z,62.17
2023-09-12T06:22:44.929Z,61.79
2023-09-12T06:25:17.019Z,61.27
2023-09-12T06:27:44.636Z,60.94
2023-09-12T06:30:13.166Z,60.18
2023-09-12T06:32:40.994Z,59.53
2023-09-12T06:35:10.002Z,58.83
2023-09-12T06:37:39.462Z,58.35
2023-09-12T06:40:08.668Z,57.46
2023-09-12T06:42:36.276Z,56.58
2023-09-12T06:45:03.997Z,55.95
2023-09-12T06:47:31.654Z,55.62
2023-09-12T06:49:59.180Z,55.28
2023-09-12T06:52:26.772Z,55.12
2023-09-12T06:54:54.340Z,54.89
2023-09-12T06:57:22.003Z,54.62
2023-09-12T06:59:50.614Z,54.09
2023-09-12T07:02:19.911Z,53.77
2023-09-12T07:04:47.700Z,53.48
2023-09-12T07:07:15.282Z,52.98
2023-09-12T07:09:42.927Z,52.53
2023-09-12T07:12:11.098Z,51.84
2023-09-12T07:14:40.179Z,51.64
2023-09-12T07:17:08.040Z,51.31
2023-09-12T07:19:35.610Z,50.79
2023-09-12T07:22:03.152Z,50.02
2023-09-12T07:24:30.908Z,49.53
2023-09-12T07:27:01.079Z,49.20
2023-09-12T07:29:29.070Z,48.80
2023-09-12T07:31:58.443Z,48.41
2023-09-12T07:34:29.233Z,47.63
2023-09-12T07:36:57.135Z,47.40
2023-09-12T07:39:26.516Z,47.35
2023-09-12T07:41:54.212Z,47.01
2023-09-12T07:44:22.332Z,46.67
2023-09-12T07:46:50.103Z,46.61
2023-09-12T07:49:17.712Z,46.89
2023-09-12T07:51:45.321Z,46.11
2023-09-12T07:54:12.919Z,46.13
2023-09-12T07:56:40.525Z,46.75
2023-09-12T07:59:12.277Z,46.69
2023-09-12T08:01:40.135Z,46.11
2023-09-12T08:04:07.821Z,45.26
2023-09-12T08:06:47.809Z,44.96
2023-09-12T08:09:23.465Z,43.72
2023-09-12T08:11:51.179Z,43.83
2023-09-12T08:14:21.637Z,44.02
2023-09-12T08:16:49.194Z,43.61
2023-09-12T08:19:19.433Z,43.42
2023-09-12T08:21:47.529Z,42.42
2023-09-12T08:24:15.055Z,41.78
2023-09-12T08:26:43.943Z,42.01
2023-09-12T08:29:12.078Z,42.25
2023-09-12T08:31:39.718Z,42.44
2023-09-12T08:34:09.234Z,42.86
2023-09-12T08:36:37.486Z,42.50
2023-09-12T08:39:09.465Z,41.24
2023-09-12T08:41:37.235Z,40.91
2023-09-12T08:44:07.142Z,41.28
2023-09-12T08:46:34.761Z,41.42
2023-09-12T08:49:02.351Z,41.42
2023-09-12T08:51:29.995Z,41.00
2023-09-12T08:53:57.560Z,40.25
2023-09-12T08:56:26.103Z,39.92
2023-09-12T08:58:53.674Z,39.16
2023-09-12T09:01:22.748Z,38.71
2023-09-12T09:03:50.348Z,38.71
2023-09-12T09:06:21.736Z,37.68
2023-09-12T09:08:52.223Z,37.20
2023-09-12T09:11:19.784Z,37.46
2023-09-12T09:13:48.480Z,37.08
2023-09-12T09:16:22.930Z,37.02
2023-09-12T09:18:54.485Z,37.25
2023-09-12T09:21:27.282Z,36.25
2023-09-12T09:23:55.754Z,35.96
2023-09-12T09:26:23.605Z,36.34
2023-09-12T09:29:10.874Z,36.19
2023-09-12T09:31:43.190Z,36.43
2023-09-12T09:34:18.319Z,36.23
2023-09-12T09:36:53.080Z,35.87
2023-09-12T09:39:22.454Z,35.72
2023-09-12T09:41:51.301Z,35.65
2023-09-12T09:44:18.926Z,35.37
2023-09-12T09:46:47.336Z,35.88
2023-09-12T09:49:22.157Z,35.20
2023-09-12T09:51:49.781Z,35.51
2023-09-12T09:54:17.405Z,35.29
2023-09-12T09:56:54.555Z,34.71
2023-09-12T09:59:23.549Z,34.75
2023-09-12T10:01:52.710Z,33.85
2023-09-12T10:04:20.653Z,33.10
2023-09-12T10:06:48.359Z,33.16
2023-09-12T10:09:16.329Z,32.74
2023-09-12T10:11:45.223Z,32.59
2023-09-12T10:14:13.109Z,32.31
2023-09-12T10:16:46.201Z,31.58
2023-09-12T10:19:28.469Z,31.78
2023-09-12T10:33:36.063Z,28.79
2023-09-12T10:36:13.012Z,27.41
2023-09-12T10:38:45.587Z,28.11
2023-09-12T10:41:14.950Z,27.99
2023-09-12T10:43:44.218Z,28.06
2023-09-12T10:46:12.076Z,27.48
2023-09-12T10:48:41.953Z,27.10
2023-09-12T10:51:09.811Z,26.70
2023-09-12T10:53:37.997Z,26.89
2023-09-12T10:56:08.761Z,28.00
2023-09-12T10:59:09.298Z,28.11
2023-09-12T11:01:38.008Z,27.71
2023-09-12T11:17:41.513Z,24.59
2023-09-12T11:20:12.581Z,24.58
2023-09-12T11:22:44.607Z,24.72
2023-09-12T11:25:26.924Z,25.47
2023-09-12T11:27:57.592Z,25.66
2023-09-12T11:30:32.264Z,25.51
2023-09-12T11:33:01.251Z,26.17
2023-09-12T11:35:30.216Z,26.36
2023-09-12T11:37:59.503Z,26.32
2023-09-12T11:40:34.494Z,26.09
2023-09-12T11:43:05.222Z,26.12
2023-09-12T11:45:33.105Z,25.82
2023-09-12T11:48:00.833Z,25.42
2023-09-12T11:50:32.396Z,24.74
2023-09-12T11:53:07.695Z,25.22
2023-09-12T11:55:37.627Z,25.13
2023-09-12T11:58:05.870Z,25.02
2023-09-12T12:00:33.986Z,24.93
2023-09-12T12:03:01.735Z,23.95
2023-09-12T12:05:30.067Z,23.94
2023-09-12T12:08:16.314Z,24.18
2023-09-12T12:10:45.536Z,23.77
2023-09-12T12:13:16.866Z,24.00
2023-09-12T12:15:44.808Z,24.40
2023-09-12T12:18:12.952Z,24.69
2023-09-12T12:20:41.329Z,24.53
2023-09-12T12:23:09.057Z,23.97
2023-09-12T12:25:36.933Z,24.13
2023-09-12T12:28:05.323Z,24.30
2023-09-12T12:30:39.035Z,24.26
2023-09-12T12:34:07.515Z,23.69
2023-09-12T12:36:05.488Z,23.56
2023-09-12T12:38:48.954Z,24.06
2023-09-12T12:41:37.778Z,24.32
2023-09-12T12:44:13.187Z,23.99
2023-09-12T12:46:56.232Z,23.76
2023-09-12T12:49:24.690Z,23.73
2023-09-12T12:51:52.336Z,23.72
2023-09-12T12:54:23.361Z,23.52
2023-09-12T12:56:51.373Z,23.69
2023-09-12T12:59:18.985Z,23.99
2023-09-12T13:01:46.899Z,23.61
2023-09-12T13:04:14.569Z,23.82
2023-09-12T13:06:43.858Z,23.42
2023-09-12T13:09:12.803Z,23.23
2023-09-12T13:11:40.665Z,23.24
2023-09-12T13:14:11.362Z,23.79
2023-09-12T13:16:42.055Z,23.99
2023-09-12T13:19:12.526Z,23.65
2023-09-12T13:21:40.403Z,23.79
2023-09-12T13:24:08.354Z,24.38
2023-09-12T13:26:35.919Z,24.20
2023-09-12T13:29:03.930Z,23.58
2023-09-12T13:31:33.094Z,22.50
2023-09-12T13:34:01.289Z,22.28
2023-09-12T13:36:31.073Z,22.69
2023-09-12T13:38:58.703Z,22.95
2023-09-12T13:41:27.735Z,23.54
2023-09-12T13:43:55.533Z,23.49
2023-09-12T13:46:23.253Z,22.60
2023-09-12T13:48:51.120Z,22.57
2023-09-12T13:51:18.687Z,22.79
2023-09-12T13:53:46.685Z,23.34
2023-09-12T13:56:14.547Z,23.26
2023-09-12T13:58:44.456Z,23.17
2023-09-12T14:01:26.518Z,22.90
2023-09-12T14:03:59.213Z,23.81
2023-09-12T14:06:28.941Z,24.03
2023-09-12T14:08:57.512Z,23.31
2023-09-12T14:11:32.870Z,23.39
2023-09-12T14:16:36.927Z,24.87
2023-09-12T14:19:05.037Z,24.77
2023-09-12T14:21:33.136Z,25.68
2023-09-12T14:24:01.929Z,25.86
2023-09-12T14:26:30.305Z,25.91
2023-09-12T14:28:58.256Z,25.60
2023-09-12T14:31:26.639Z,24.83
2023-09-12T14:33:54.478Z,24.19
2023-09-12T14:36:22.167Z,24.54
2023-09-12T14:38:50.185Z,25.44
2023-09-12T14:41:17.836Z,24.76
2023-09-12T14:43:45.729Z,24.56
2023-09-12T14:46:13.824Z,24.54
2023-09-12T14:48:51.753Z,23.63
2023-09-12T14:51:31.825Z,23.71
2023-09-12T14:54:02.411Z,24.29
2023-09-12T14:56:30.974Z,23.77
2023-09-12T14:58:58.678Z,22.66
2023-09-12T15:01:26.477Z,22.31
2023-09-12T15:03:54.826Z,22.16
2023-09-12T15:06:24.490Z,22.26
2023-09-12T15:08:52.189Z,22.03
2023-09-12T15:11:19.925Z,21.80
2023-09-12T15:13:48.608Z,21.90
2023-09-12T15:16:17.031Z,22.11
2023-09-12T15:18:44.864Z,21.90
2023-09-12T15:21:12.428Z,22.33
2023-09-12T15:23:39.971Z,21.97
2023-09-12T15:26:07.607Z,21.68
2023-09-12T15:28:35.433Z,21.90
2023-09-12T15:31:04.843Z,22.22
2023-09-12T15:33:34.274Z,22.33
2023-09-12T15:36:02.145Z,22.29
2023-09-12T15:38:31.200Z,22.66
2023-09-12T15:40:59.871Z,24.05
2023-09-12T15:43:28.253Z,24.94
2023-09-12T15:45:56.002Z,24.98
2023-09-12T15:48:24.274Z,26.15
2023-09-12T15:50:52.419Z,26.98
2023-09-12T15:53:20.043Z,27.88
2023-09-12T15:55:49.953Z,28.91
2023-09-12T15:58:17.564Z,29.93
2023-09-12T16:00:45.252Z,31.02
2023-09-12T16:03:13.245Z,31.90
2023-09-12T16:05:40.982Z,32.36
2023-09-12T16:08:09.152Z,33.47
2023-09-12T16:10:37.079Z,34.32
2023-09-12T16:13:05.237Z,35.13
2023-09-12T16:15:34.670Z,35.72
2023-09-12T16:18:02.652Z,36.13
2023-09-12T16:20:30.891Z,36.76
2023-09-12T16:22:58.533Z,37.57
2023-09-12T16:25:26.164Z,38.10
2023-09-12T16:27:54.024Z,38.50
2023-09-12T16:30:21.697Z,38.65
2023-09-12T16:32:49.342Z,39.18
2023-09-12T16:35:17.168Z,40.12
2023-09-12T16:37:45.250Z,40.66
2023-09-12T16:40:12.871Z,40.98
2023-09-12T16:42:40.469Z,41.30
2023-09-12T16:45:09.700Z,41.90
2023-09-12T16:47:37.362Z,42.69
2023-09-12T16:50:05.416Z,43.40
2023-09-12T16:52:33.054Z,44.33
2023-09-12T16:55:00.668Z,45.14
2023-09-12T16:57:28.531Z,45.76
2023-09-12T16:59:56.203Z,46.49
2023-09-12T17:02:25.389Z,46.94
2023-09-12T17:04:53.323Z,47.48
2023-09-12T17:07:21.181Z,47.85
2023-09-12T17:09:51.582Z,48.32
2023-09-12T17:12:19.194Z,48.55
2023-09-12T17:14:46.710Z,48.98
2023-09-12T17:17:14.315Z,49.31
2023-09-12T17:19:41.921Z,49.55
2023-09-12T17:22:09.384Z,49.97
2023-09-12T17:24:37.170Z,50.14
2023-09-12T17:27:04.966Z,50.90
2023-09-12T17:29:32.597Z,51.41
2023-09-12T17:32:09.222Z,51.79
2023-09-12T17:34:43.848Z,52.01
2023-09-12T17:37:11.876Z,52.14
2023-09-12T17:39:40.038Z,52.13
2023-09-12T17:42:07.884Z,52.23
2023-09-12T17:44:35.848Z,52.58
2023-09-12T17:47:03.923Z,52.79
2023-09-12T17:49:34.627Z,53.06
2023-09-12T17:52:02.978Z,53.23
2023-09-12T17:54:30.559Z,53.09
2023-09-12T17:56:59.471Z,53.28
2023-09-12T17:59:28.182Z,53.69
2023-09-12T18:01:55.924Z,54.04
2023-09-12T18:04:25.681Z,54.15
2023-09-12T18:06:54.482Z,54.39
2023-09-12T18:09:22.209Z,54.68
2023-09-12T18:11:49.944Z,54.89
2023-09-12T18:14:17.644Z,55.12
2023-09-12T18:16:45.421Z,55.32
2023-09-12T18:19:13.363Z,55.28
2023-09-12T18:21:41.104Z,55.38
2023-09-12T18:24:08.699Z,55.36
2023-09-12T18:26:36.262Z,55.80
2023-09-12T18:29:04.060Z,55.79
2023-09-12T18:31:31.666Z,55.75
2023-09-12T18:33:59.387Z,55.71
2023-09-12T18:36:29.768Z,55.77
2023-09-12T18:38:57.334Z,55.64
2023-09-12T18:41:24.957Z,55.74
2023-09-12T18:43:53.214Z,55.73
2023-09-12T18:46:21.111Z,56.15
2023-09-12T18:48:48.856Z,56.33
2023-09-12T18:51:16.506Z,56.72
2023-09-12T18:53:44.382Z,57.01
2023-09-12T18:56:12.209Z,57.12
2023-09-12T18:58:40.472Z,57.28
2023-09-12T19:01:09.430Z,57.66
2023-09-12T19:03:37.457Z,57.87
2023-09-12T19:06:05.857Z,58.01
2023-09-12T19:08:33.546Z,58.12
2023-09-12T19:11:01.164Z,58.20
2023-09-12T19:13:28.917Z,58.41
2023-09-12T19:15:56.680Z,58.47
2023-09-12T19:18:24.281Z,58.46
2023-09-12T19:20:51.898Z,58.70
2023-09-12T19:23:20.089Z,58.81
2023-09-12T19:25:49.450Z,59.07
2023-09-12T19:28:18.266Z,59.27
2023-09-12T19:30:46.246Z,59.31
2023-09-12T19:33:15.027Z,59.33
2023-09-12T19:35:43.337Z,59.39
2023-09-12T19:38:11.022Z,59.57
2023-09-12T19:40:39.973Z,59.84
2023-09-12T19:43:07.731Z,60.17
2023-09-12T19:45:36.310Z,60.40
2023-09-12T19:48:06.697Z,60.45
2023-09-12T19:50:35.497Z,60.40
2023-09-12T19:53:03.090Z,60.38
2023-09-12T19:55:30.672Z,60.19
2023-09-12T19:57:58.541Z,60.17
2023-09-12T20:00:26.090Z,60.23
2023-09-12T20:02:53.835Z,60.43
2023-09-12T20:05:24.404Z,60.61
2023-09-12T20:07:52.457Z,60.51
2023-09-12T20:10:22.101Z,60.55
2023-09-12T20:12:52.221Z,60.69
2023-09-12T20:15:21.799Z,60.80
2023-09-12T20:17:52.965Z,60.99
2023-09-12T20:20:23.225Z,61.06
2023-09-12T20:22:51.244Z,61.04
2023-09-12T20:25:20.680Z,61.31
2023-09-12T20:27:49.876Z,61.43
2023-09-12T20:30:17.540Z,61.60
2023-09-12T20:32:57.682Z,61.87
2023-09-12T20:35:30.839Z,61.90
2023-09-12T20:37:59.285Z,61.75
2023-09-12T20:40:27.908Z,61.60
2023-09-12T20:42:56.319Z,61.48
2023-09-12T20:45:23.978Z,61.21
2023-09-12T20:47:52.931Z,61.21
2023-09-12T20:50:27.040Z,61.15
2023-09-12T20:52:59.861Z,60.99
2023-09-12T20:55:28.771Z,60.98
2023-09-12T20:57:58.226Z,60.91
2023-09-12T21:00:28.866Z,61.07
2023-09-12T21:02:56.593Z,61.29
2023-09-12T21:05:24.968Z,61.75
2023-09-12T21:07:52.571Z,62.11
2023-09-12T21:10:20.151Z,62.34
2023-09-12T21:12:47.757Z,62.46
2023-09-12T21:15:15.612Z,62.64
2023-09-12T21:17:43.294Z,62.65
2023-09-12T21:20:11.216Z,62.72
2023-09-12T21:22:38.764Z,62.88
2023-09-12T21:25:06.820Z,62.99
2023-09-12T21:27:34.466Z,63.18
2023-09-12T21:30:04.869Z,63.29
2023-09-12T21:32:33.794Z,63.38
2023-09-12T21:35:12.236Z,63.45
2023-09-12T21:37:42.029Z,63.69
2023-09-12T21:40:11.852Z,63.80
2023-09-12T21:42:40.932Z,63.85
2023-09-12T21:45:13.325Z,64.02
2023-09-12T21:47:41.279Z,64.08
2023-09-12T21:50:09.342Z,64.09
2023-09-12T21:52:38.110Z,64.15
2023-09-12T21:55:06.123Z,64.24
2023-09-12T21:57:35.082Z,64.00
2023-09-12T22:00:14.121Z,63.89
2023-09-12T22:02:41.792Z,63.70
2023-09-12T22:05:09.721Z,63.62
2023-09-12T22:07:37.606Z,63.41
2023-09-12T22:10:05.798Z,63.43
2023-09-12T22:12:33.448Z,63.53
2023-09-12T22:15:01.060Z,63.47
2023-09-12T22:17:28.605Z,63.53
2023-09-12T22:19:57.510Z,63.71
2023-09-12T22:22:25.135Z,64.02
2023-09-12T22:24:54.134Z,64.17
2023-09-12T22:27:22.213Z,64.51
2023-09-12T22:29:49.924Z,64.50
2023-09-12T22:32:17.491Z,64.82
2023-09-12T22:34:46.585Z,64.92
2023-09-12T22:37:14.131Z,65.04
2023-09-12T22:39:46.203Z,65.18
2023-09-12T22:42:13.800Z,65.32
2023-09-12T22:44:41.821Z,65.33
2023-09-12T22:47:09.384Z,65.52
2023-09-12T22:49:36.921Z,65.72
2023-09-12T22:52:04.854Z,65.77
2023-09-12T22:54:32.492Z,65.99
2023-09-12T22:57:00.077Z,66.07
2023-09-12T22:59:30.848Z,66.08
2023-09-12T23:02:00.106Z,66.00
2023-09-12T23:04:28.173Z,65.93
2023-09-12T23:06:57.613Z,65.97
2023-09-12T23:09:25.274Z,65.94
2023-09-12T23:11:53.767Z,66.01
2023-09-12T23:14:21.828Z,66.17
2023-09-12T23:16:49.439Z,66.31
2023-09-12T23:19:17.128Z,66.20
2023-09-12T23:21:44.744Z,66.37
2023-09-12T23:24:12.276Z,66.36
2023-09-12T23:26:39.819Z,66.38
2023-09-12T23:29:07.367Z,66.39
2023-09-12T23:31:34.975Z,66.46
2023-09-12T23:34:03.343Z,66.35
2023-09-12T23:36:30.922Z,66.06
2023-09-12T23:38:58.459Z,66.02
2023-09-12T23:41:26.013Z,65.88
2023-09-12T23:43:56.206Z,65.57
2023-09-12T23:46:23.769Z,65.51
2023-09-12T23:48:51.379Z,65.54
2023-09-12T23:51:18.951Z,65.46
2023-09-12T23:53:46.643Z,65.59
2023-09-12T23:56:14.237Z,65.61
2023-09-12T23:58:41.746Z,65.60
